Time,TemperatureF,DewpointF,PressureIn,WindDirection,WindDirectionDegrees,WindSpeedMPH,WindSpeedGustMPH,Humidity,HourlyPrecipIn,Conditions,Clouds,dailyrainin,SoftwareType,DateUTC
2013-07-28 00:01:00,64.4,60.4,28.88,ESE,112,0.0,0.0,87,0.00,,,0.00,WUHU216WMR100,2013-07-28 04:01:00,
2013-07-28 00:06:00,64.2,60.6,28.88,ESE,112,0.0,0.0,88,0.00,,,0.00,WUHU216WMR100,2013-07-28 04:06:00,
2013-07-28 00:11:00,64.0,60.4,28.88,ESE,112,0.0,0.0,88,0.00,,,0.00,WUHU216WMR100,2013-07-28 04:11:00,
2013-07-28 00:16:00,63.9,60.3,28.88,ESE,112,0.0,0.0,88,0.00,,,0.00,WUHU216WMR100,2013-07-28 04:16:00,
2013-07-28 00:21:00,63.9,60.6,28.88,ESE,112,0.0,0.0,89,0.00,,,0.00,WUHU216WMR100,2013-07-28 04:21:00,
2013-07-28 00:26:00,63.9,60.6,28.88,ESE,112,0.0,0.0,89,0.00,,,0.00,WUHU216WMR100,2013-07-28 04:26:00,
2013-07-28 00:31:00,63.7,60.4,28.88,ESE,112,0.0,0.0,89,0.00,,,0.00,WUHU216WMR100,2013-07-28 04:31:00,
2013-07-28 00:36:00,63.7,60.7,28.88,ESE,112,0.0,0.0,90,0.00,,,0.00,WUHU216WMR100,2013-07-28 04:36:00,
2013-07-28 00:41:00,63.5,60.5,28.88,ESE,112,0.0,0.0,90,0.00,,,0.00,WUHU216WMR100,2013-07-28 04:41:00,
2013-07-28 00:46:00,63.3,60.0,28.88,ESE,112,0.0,0.0,89,0.00,,,0.00,WUHU216WMR100,2013-07-28 04:46:00,
2013-07-28 00:51:00,63.3,60.3,28.85,ESE,112,0.0,0.0,90,0.00,,,0.00,WUHU216WMR100,2013-07-28 04:51:00,
2013-07-28 00:56:00,63.1,60.1,28.85,ESE,112,0.0,0.0,90,0.00,,,0.00,WUHU216WMR100,2013-07-28 04:56:00,
2013-07-28 01:01:00,63.1,60.4,28.85,ESE,112,0.0,0.0,91,0.00,,,0.00,WUHU216WMR100,2013-07-28 05:01:00,
2013-07-28 01:06:00,63.1,60.4,28.85,ESE,112,0.0,0.0,91,0.00,,,0.00,WUHU216WMR100,2013-07-28 05:06:00,
2013-07-28 01:11:00,63.3,60.9,28.85,ESE,112,0.0,0.0,92,0.00,,,0.00,WUHU216WMR100,2013-07-28 05:11:00,
2013-07-28 01:16:00,63.5,61.1,28.85,ESE,112,0.0,0.0,92,0.00,,,0.00,WUHU216WMR100,2013-07-28 05:16:00,
2013-07-28 01:21:00,63.7,61.3,28.88,ESE,112,0.0,0.0,92,0.00,,,0.00,WUHU216WMR100,2013-07-28 05:21:00,
2013-07-28 01:26:00,63.9,61.5,28.88,ESE,112,0.0,0.0,92,0.00,,,0.00,WUHU216WMR100,2013-07-28 05:26:00,
2013-07-28 01:31:00,64.0,61.6,28.88,ESE,112,0.0,0.0,92,0.00,,,0.00,WUHU216WMR100,2013-07-28 05:31:00,
2013-07-28 01:36:00,64.4,62.6,28.88,ESE,112,0.0,0.0,94,0.00,,,0.00,WUHU216WMR100,2013-07-28 05:36:00,
2013-07-28 01:41:00,64.4,62.9,28.88,ESE,112,0.0,0.0,95,0.00,,,0.00,WUHU216WMR100,2013-07-28 05:41:00,
2013-07-28 01:46:00,64.4,62.9,28.88,ESE,112,0.0,0.0,95,0.00,,,0.00,WUHU216WMR100,2013-07-28 05:46:00,
2013-07-28 01:51:00,64.2,62.4,28.88,ESE,112,0.0,0.0,94,0.00,,,0.00,WUHU216WMR100,2013-07-28 05:51:00,
2013-07-28 01:56:00,64.0,61.9,28.88,ESE,112,0.0,0.0,93,0.00,,,0.00,WUHU216WMR100,2013-07-28 05:56:00,
2013-07-28 02:02:00,63.9,61.5,28.88,ESE,112,0.0,0.0,92,0.00,,,0.00,WUHU216WMR100,2013-07-28 06:02:00,
2013-07-28 02:07:00,63.5,60.5,28.88,ESE,112,0.0,0.0,90,0.00,,,0.00,WUHU216WMR100,2013-07-28 06:07:00,
2013-07-28 02:12:00,63.3,60.0,28.88,ESE,112,0.0,0.0,89,0.00,,,0.00,WUHU216WMR100,2013-07-28 06:12:00,
2013-07-28 02:17:00,63.1,59.2,28.88,ESE,112,0.0,0.0,87,0.00,,,0.00,WUHU216WMR100,2013-07-28 06:17:00,
2013-07-28 02:22:00,63.1,58.8,28.88,ESE,112,0.0,0.0,86,0.00,,,0.00,WUHU216WMR100,2013-07-28 06:22:00,
2013-07-28 02:27:00,63.0,58.4,28.88,ESE,112,0.0,0.0,85,0.00,,,0.00,WUHU216WMR100,2013-07-28 06:27:00,
2013-07-28 02:32:00,62.8,58.2,28.88,ESE,112,0.0,0.0,85,0.00,,,0.00,WUHU216WMR100,2013-07-28 06:32:00,
2013-07-28 02:37:00,62.6,57.7,28.88,ESE,112,0.0,0.0,84,0.00,,,0.00,WUHU216WMR100,2013-07-28 06:37:00,
2013-07-28 02:42:00,62.4,57.5,28.88,ESE,112,0.0,0.0,84,0.00,,,0.00,WUHU216WMR100,2013-07-28 06:42:00,
2013-07-28 02:47:00,62.2,57.3,28.88,ESE,112,0.0,0.0,84,0.00,,,0.00,WUHU216WMR100,2013-07-28 06:47:00,
2013-07-28 02:52:00,62.1,57.2,28.88,ESE,112,0.0,0.0,84,0.00,,,0.00,WUHU216WMR100,2013-07-28 06:52:00,
2013-07-28 02:57:00,61.9,57.0,28.88,ESE,112,0.0,0.0,84,0.00,,,0.00,WUHU216WMR100,2013-07-28 06:57:00,
2013-07-28 03:02:00,61.7,57.2,28.88,ESE,112,0.0,0.0,85,0.00,,,0.00,WUHU216WMR100,2013-07-28 07:02:00,
2013-07-28 03:07:00,61.3,56.8,28.88,ESE,112,0.0,0.0,85,0.00,,,0.00,WUHU216WMR100,2013-07-28 07:07:00,
2013-07-28 03:12:00,61.2,56.7,28.88,ESE,112,0.0,0.0,85,0.00,,,0.00,WUHU216WMR100,2013-07-28 07:12:00,
2013-07-28 03:17:00,61.0,56.5,28.88,ESE,112,0.0,0.0,85,0.00,,,0.00,WUHU216WMR100,2013-07-28 07:17:00,
2013-07-28 03:22:00,60.6,56.4,28.88,ESE,112,0.0,0.0,86,0.00,,,0.00,WUHU216WMR100,2013-07-28 07:22:00,
2013-07-28 03:27:00,60.4,56.2,28.88,ESE,112,0.0,0.0,86,0.00,,,0.00,WUHU216WMR100,2013-07-28 07:27:00,
2013-07-28 03:33:00,60.3,56.4,28.88,ESE,112,0.0,0.0,87,0.00,,,0.00,WUHU216WMR100,2013-07-28 07:33:00,
2013-07-28 03:38:00,59.9,56.0,28.88,ESE,112,0.0,0.0,87,0.00,,,0.00,WUHU216WMR100,2013-07-28 07:38:00,
2013-07-28 03:44:00,59.7,55.8,28.88,ESE,112,0.0,0.0,87,0.00,,,0.00,WUHU216WMR100,2013-07-28 07:44:00,
2013-07-28 03:49:00,59.7,55.8,28.88,ESE,112,0.0,0.0,87,0.00,,,0.00,WUHU216WMR100,2013-07-28 07:49:00,
2013-07-28 03:54:00,59.5,55.9,28.88,ESE,112,0.0,0.0,88,0.00,,,0.00,WUHU216WMR100,2013-07-28 07:54:00,
2013-07-28 03:59:00,59.5,56.2,28.88,ESE,112,0.0,0.0,89,0.00,,,0.00,WUHU216WMR100,2013-07-28 07:59:00,
2013-07-28 04:04:00,59.5,56.2,28.88,ESE,112,0.0,0.0,89,0.00,,,0.00,WUHU216WMR100,2013-07-28 08:04:00,
2013-07-28 04:09:00,59.7,56.7,28.88,ESE,112,0.0,0.0,90,0.00,,,0.00,WUHU216WMR100,2013-07-28 08:09:00,
2013-07-28 04:15:00,59.9,56.9,28.88,ESE,112,0.0,0.0,90,0.00,,,0.00,WUHU216WMR100,2013-07-28 08:15:00,
2013-07-28 04:20:00,59.9,56.9,28.88,ESE,112,0.0,0.0,90,0.00,,,0.00,WUHU216WMR100,2013-07-28 08:20:00,
2013-07-28 04:25:00,60.1,57.1,28.88,ESE,112,0.0,0.0,90,0.00,,,0.00,WUHU216WMR100,2013-07-28 08:25:00,
2013-07-28 04:30:00,60.1,57.1,28.88,ESE,112,0.0,0.0,90,0.00,,,0.00,WUHU216WMR100,2013-07-28 08:30:00,
2013-07-28 04:35:00,60.1,57.4,28.88,ESE,112,0.0,0.0,91,0.00,,,0.00,WUHU216WMR100,2013-07-28 08:35:00,
2013-07-28 04:40:00,60.1,57.7,28.88,ESE,112,0.0,0.0,92,0.00,,,0.00,WUHU216WMR100,2013-07-28 08:40:00,
2013-07-28 04:45:00,60.3,58.2,28.88,ESE,112,0.0,0.0,93,0.00,,,0.00,WUHU216WMR100,2013-07-28 08:45:00,
2013-07-28 04:50:00,60.4,58.3,28.88,ESE,112,0.0,0.0,93,0.00,,,0.00,WUHU216WMR100,2013-07-28 08:50:00,
2013-07-28 04:55:00,60.4,58.0,28.88,ESE,112,0.0,0.0,92,0.00,,,0.00,WUHU216WMR100,2013-07-28 08:55:00,
2013-07-28 05:00:00,60.3,57.9,28.88,ESE,112,0.0,0.0,92,0.00,,,0.00,WUHU216WMR100,2013-07-28 09:00:00,
2013-07-28 05:05:00,60.1,57.7,28.88,ESE,112,0.0,0.0,92,0.00,,,0.00,WUHU216WMR100,2013-07-28 09:05:00,
2013-07-28 05:10:00,59.7,57.0,28.88,ESE,112,0.0,0.0,91,0.00,,,0.00,WUHU216WMR100,2013-07-28 09:10:00,
2013-07-28 05:15:00,59.4,56.7,28.88,ESE,112,0.0,0.0,91,0.00,,,0.00,WUHU216WMR100,2013-07-28 09:15:00,
2013-07-28 05:20:00,59.4,56.7,28.91,ESE,112,0.0,0.0,91,0.00,,,0.00,WUHU216WMR100,2013-07-28 09:20:00,
2013-07-28 05:25:00,59.2,56.5,28.91,ESE,112,0.0,0.0,91,0.00,,,0.00,WUHU216WMR100,2013-07-28 09:25:00,
2013-07-28 05:30:00,58.8,56.4,28.91,ESE,112,0.0,0.0,92,0.00,,,0.00,WUHU216WMR100,2013-07-28 09:30:00,
2013-07-28 05:35:00,58.6,56.2,28.91,ESE,112,0.0,0.0,92,0.00,,,0.00,WUHU216WMR100,2013-07-28 09:35:00,
2013-07-28 05:40:00,58.5,56.1,28.91,ESE,112,0.0,0.0,92,0.00,,,0.00,WUHU216WMR100,2013-07-28 09:40:00,
2013-07-28 05:45:00,58.3,55.9,28.91,ESE,112,0.0,0.0,92,0.00,,,0.00,WUHU216WMR100,2013-07-28 09:45:00,
2013-07-28 05:50:00,58.1,55.8,28.91,ESE,112,0.0,0.0,92,0.00,,,0.00,WUHU216WMR100,2013-07-28 09:50:00,
2013-07-28 05:55:00,57.9,55.8,28.91,ESE,112,0.0,0.0,93,0.00,,,0.00,WUHU216WMR100,2013-07-28 09:55:00,
2013-07-28 06:00:00,57.9,55.8,28.91,ESE,112,0.0,0.0,93,0.00,,,0.00,WUHU216WMR100,2013-07-28 10:00:00,
2013-07-28 06:05:00,57.7,55.7,28.91,ESE,112,0.0,0.0,93,0.00,,,0.00,WUHU216WMR100,2013-07-28 10:05:00,
2013-07-28 06:10:00,57.7,55.7,28.91,ESE,112,0.0,0.0,93,0.00,,,0.00,WUHU216WMR100,2013-07-28 10:10:00,
2013-07-28 06:15:00,57.7,55.7,28.91,ESE,112,0.0,0.0,93,0.00,,,0.00,WUHU216WMR100,2013-07-28 10:15:00,
2013-07-28 06:20:00,57.6,55.6,28.91,ESE,112,0.0,0.0,93,0.00,,,0.00,WUHU216WMR100,2013-07-28 10:20:00,
2013-07-28 06:25:00,57.6,55.6,28.91,ESE,112,0.0,0.0,93,0.00,,,0.00,WUHU216WMR100,2013-07-28 10:25:00,
2013-07-28 06:30:00,57.6,55.8,28.91,ESE,112,0.0,0.0,94,0.00,,,0.00,WUHU216WMR100,2013-07-28 10:30:00,
2013-07-28 06:35:00,57.4,55.6,28.91,ESE,112,0.0,0.0,94,0.00,,,0.00,WUHU216WMR100,2013-07-28 10:35:00,
2013-07-28 06:40:00,57.4,55.6,28.91,ESE,112,0.0,0.0,94,0.00,,,0.00,WUHU216WMR100,2013-07-28 10:40:00,
2013-07-28 06:45:00,57.4,55.6,28.91,ESE,112,0.0,0.0,94,0.00,,,0.00,WUHU216WMR100,2013-07-28 10:45:00,
2013-07-28 06:50:00,57.4,55.6,28.94,ESE,112,0.0,0.0,94,0.00,,,0.00,WUHU216WMR100,2013-07-28 10:50:00,
2013-07-28 06:55:00,57.6,55.8,28.94,ESE,112,0.0,0.0,94,0.00,,,0.00,WUHU216WMR100,2013-07-28 10:55:00,
2013-07-28 07:00:00,57.9,56.4,28.94,ESE,112,0.0,0.0,95,0.00,,,0.00,WUHU216WMR100,2013-07-28 11:00:00,
2013-07-28 07:05:00,57.9,56.4,28.94,ESE,112,0.0,0.0,95,0.00,,,0.00,WUHU216WMR100,2013-07-28 11:05:00,
2013-07-28 07:10:00,57.9,56.4,28.94,ESE,112,0.0,0.0,95,0.00,,,0.00,WUHU216WMR100,2013-07-28 11:10:00,
2013-07-28 07:15:00,58.6,57.4,28.94,ESE,112,0.0,0.0,96,0.00,,,0.00,WUHU216WMR100,2013-07-28 11:15:00,
2013-07-28 07:20:00,58.6,57.4,28.94,ESE,112,0.0,0.0,96,0.00,,,0.00,WUHU216WMR100,2013-07-28 11:20:00,
2013-07-28 07:25:00,59.0,57.8,28.94,ESE,112,0.0,0.0,96,0.00,,,0.00,WUHU216WMR100,2013-07-28 11:25:00,
2013-07-28 07:30:00,60.4,59.5,28.94,ESE,112,0.0,0.0,97,0.00,,,0.00,WUHU216WMR100,2013-07-28 11:30:00,
2013-07-28 07:35:00,60.4,59.5,28.94,NW,315,2.2,2.9,97,0.00,,,0.00,WUHU216WMR100,2013-07-28 11:35:00,
2013-07-28 07:40:00,61.2,60.3,28.94,NW,315,0.0,2.9,97,0.00,,,0.00,WUHU216WMR100,2013-07-28 11:40:00,
2013-07-28 07:45:00,62.1,60.9,28.94,NW,315,0.0,2.9,96,0.00,,,0.00,WUHU216WMR100,2013-07-28 11:45:00,
2013-07-28 07:50:00,62.6,61.4,28.94,NW,315,1.3,1.3,96,0.00,,,0.00,WUHU216WMR100,2013-07-28 11:50:00,
2013-07-28 07:55:00,61.5,59.4,28.94,NNW,337,2.5,2.7,93,0.00,,,0.00,WUHU216WMR100,2013-07-28 11:55:00,
2013-07-28 08:00:00,61.5,58.5,28.94,NNW,337,2.5,2.7,90,0.00,,,0.00,WUHU216WMR100,2013-07-28 12:00:00,
2013-07-28 08:05:00,62.6,58.7,28.94,NNW,337,2.5,2.7,87,0.00,,,0.00,WUHU216WMR100,2013-07-28 12:05:00,
2013-07-28 08:10:00,63.3,59.0,28.94,NNW,337,1.6,2.7,86,0.00,,,0.00,WUHU216WMR100,2013-07-28 12:10:00,
2013-07-28 08:15:00,63.9,59.0,28.94,NNW,337,0.3,2.7,84,0.00,,,0.00,WUHU216WMR100,2013-07-28 12:15:00,
2013-07-28 08:20:00,64.0,58.1,28.94,SSW,202,1.6,2.7,81,0.00,,,0.00,WUHU216WMR100,2013-07-28 12:20:00,
2013-07-28 08:25:00,64.8,58.9,28.94,SSW,202,0.0,2.7,81,0.00,,,0.00,WUHU216WMR100,2013-07-28 12:25:00,
2013-07-28 08:30:00,65.3,56.9,28.94,NW,315,1.4,3.1,74,0.00,,,0.00,WUHU216WMR100,2013-07-28 12:30:00,
2013-07-28 08:35:00,65.8,55.5,28.94,North,0,2.9,3.4,69,0.00,,,0.00,WUHU216WMR100,2013-07-28 12:35:00,
2013-07-28 08:40:00,65.8,54.3,28.94,North,0,0.9,3.4,66,0.00,,,0.00,WUHU216WMR100,2013-07-28 12:40:00,
2013-07-28 08:45:00,66.6,52.9,28.94,NW,315,2.2,3.1,61,0.00,,,0.00,WUHU216WMR100,2013-07-28 12:45:00,
2013-07-28 08:50:00,66.9,53.2,28.94,NW,315,0.6,3.1,61,0.00,,,0.00,WUHU216WMR100,2013-07-28 12:50:00,
2013-07-28 08:55:00,67.8,54.5,28.94,NW,315,0.0,2.9,62,0.00,,,0.00,WUHU216WMR100,2013-07-28 12:55:00,
2013-07-28 09:00:00,68.2,51.0,28.94,WSW,247,0.0,1.3,54,0.00,,,0.00,WUHU216WMR100,2013-07-28 13:00:00,
2013-07-28 09:05:00,68.4,50.2,28.97,WSW,247,0.0,1.3,52,0.00,,,0.00,WUHU216WMR100,2013-07-28 13:05:00,
2013-07-28 09:10:00,68.5,49.7,28.97,WSW,247,0.0,1.1,51,0.00,,,0.00,WUHU216WMR100,2013-07-28 13:10:00,
2013-07-28 09:15:00,68.4,48.5,28.97,WSW,247,0.0,1.1,49,0.00,,,0.00,WUHU216WMR100,2013-07-28 13:15:00,
2013-07-28 09:20:00,68.5,48.0,28.97,SSW,202,2.7,2.7,48,0.00,,,0.00,WUHU216WMR100,2013-07-28 13:20:00,
2013-07-28 09:25:00,68.9,49.0,28.97,SSW,202,2.7,2.7,49,0.00,,,0.00,WUHU216WMR100,2013-07-28 13:25:00,
2013-07-28 09:30:00,69.4,46.5,28.97,SSW,202,2.7,2.7,44,0.00,,,0.00,WUHU216WMR100,2013-07-28 13:30:00,
2013-07-28 09:35:00,70.0,47.0,28.94,SSW,202,2.7,2.7,44,0.00,,,0.00,WUHU216WMR100,2013-07-28 13:35:00,
2013-07-28 09:40:00,70.0,46.4,28.94,SSW,202,2.7,2.7,43,0.00,,,0.00,WUHU216WMR100,2013-07-28 13:40:00,
2013-07-28 09:45:00,69.4,45.9,28.94,SSW,202,2.7,2.7,43,0.00,,,0.00,WUHU216WMR100,2013-07-28 13:45:00,
2013-07-28 09:50:00,69.4,45.2,28.94,SSW,202,2.7,2.7,42,0.00,,,0.00,WUHU216WMR100,2013-07-28 13:50:00,
2013-07-28 09:55:00,69.8,46.2,28.94,SSW,202,2.7,2.7,43,0.00,,,0.00,WUHU216WMR100,2013-07-28 13:55:00,
2013-07-28 10:00:00,70.3,45.4,28.94,SSW,202,2.7,2.7,41,0.00,,,0.00,WUHU216WMR100,2013-07-28 14:00:00,
2013-07-28 10:05:00,71.6,44.5,28.94,SSW,202,2.7,2.7,38,0.00,,,0.00,WUHU216WMR100,2013-07-28 14:05:00,
2013-07-28 10:10:00,72.0,44.1,28.94,SSW,202,2.7,2.7,37,0.00,,,0.00,WUHU216WMR100,2013-07-28 14:10:00,
2013-07-28 10:15:00,72.1,44.2,28.94,SSW,202,2.7,2.7,37,0.00,,,0.00,WUHU216WMR100,2013-07-28 14:15:00,
2013-07-28 10:20:00,72.7,44.0,28.94,SSW,202,2.7,2.7,36,0.00,,,0.00,WUHU216WMR100,2013-07-28 14:20:00,
2013-07-28 10:25:00,73.2,43.7,28.94,SSW,202,2.7,2.7,35,0.00,,,0.00,WUHU216WMR100,2013-07-28 14:25:00,
2013-07-28 10:30:00,73.9,44.4,28.94,SSW,202,2.7,2.7,35,0.00,,,0.00,WUHU216WMR100,2013-07-28 14:30:00,
2013-07-28 10:35:00,73.9,43.6,28.94,SSW,202,2.7,2.7,34,0.00,,,0.00,WUHU216WMR100,2013-07-28 14:35:00,
2013-07-28 10:40:00,73.9,42.8,28.94,SSW,202,2.7,2.7,33,0.00,,,0.00,WUHU216WMR100,2013-07-28 14:40:00,
2013-07-28 10:45:00,73.6,43.3,28.94,SSW,202,2.7,2.7,34,0.00,,,0.00,WUHU216WMR100,2013-07-28 14:45:00,
2013-07-28 10:50:00,71.4,41.4,28.97,SSW,202,2.7,2.7,34,0.00,,,0.00,WUHU216WMR100,2013-07-28 14:50:00,
2013-07-28 10:55:00,71.2,42.0,28.97,SSW,202,2.7,2.7,35,0.00,,,0.00,WUHU216WMR100,2013-07-28 14:55:00,
2013-07-28 11:00:00,72.1,42.8,28.97,SSW,202,2.7,2.7,35,0.00,,,0.00,WUHU216WMR100,2013-07-28 15:00:00,
2013-07-28 11:06:00,71.4,42.1,28.94,SSW,202,2.7,2.7,35,0.00,,,0.00,WUHU216WMR100,2013-07-28 15:06:00,
2013-07-28 11:11:00,71.2,43.4,28.94,SSW,202,2.7,2.7,37,0.00,,,0.00,WUHU216WMR100,2013-07-28 15:11:00,
2013-07-28 11:18:00,72.9,42.7,28.97,SSW,202,2.7,2.7,34,0.00,,,0.00,WUHU216WMR100,2013-07-28 15:18:00,
2013-07-28 11:23:00,72.5,43.1,28.97,SSW,202,2.7,2.7,35,0.00,,,0.00,WUHU216WMR100,2013-07-28 15:23:00,
2013-07-28 11:28:00,70.9,42.4,28.97,SSW,202,2.7,2.7,36,0.00,,,0.00,WUHU216WMR100,2013-07-28 15:28:00,
2013-07-28 11:33:00,70.0,41.6,28.97,SSW,202,2.7,2.7,36,0.00,,,0.00,WUHU216WMR100,2013-07-28 15:33:00,
2013-07-28 11:38:00,69.6,42.0,28.97,NNW,337,1.8,5.4,37,0.00,,,0.00,WUHU216WMR100,2013-07-28 15:38:00,
2013-07-28 11:43:00,71.8,44.0,28.97,SSE,157,1.6,5.4,37,0.00,,,0.00,WUHU216WMR100,2013-07-28 15:43:00,
2013-07-28 11:48:00,70.9,43.2,28.94,SSE,157,1.6,4.3,37,0.00,,,0.00,WUHU216WMR100,2013-07-28 15:48:00,
2013-07-28 11:53:00,70.0,42.4,28.94,SSE,157,1.6,4.3,37,0.00,,,0.00,WUHU216WMR100,2013-07-28 15:53:00,
2013-07-28 11:58:00,69.4,41.8,28.94,SSE,157,1.6,4.3,37,0.00,,,0.00,WUHU216WMR100,2013-07-28 15:58:00,
2013-07-28 12:03:00,70.0,43.1,28.94,SSE,157,1.6,4.3,38,0.00,,,0.00,WUHU216WMR100,2013-07-28 16:03:00,
2013-07-28 12:08:00,69.6,42.0,28.94,SSE,157,1.6,4.3,37,0.00,,,0.00,WUHU216WMR100,2013-07-28 16:08:00,
2013-07-28 12:13:00,72.0,44.1,28.94,SSE,157,1.6,4.3,37,0.00,,,0.00,WUHU216WMR100,2013-07-28 16:13:00,
2013-07-28 12:18:00,72.1,42.8,28.97,SSE,157,1.6,4.3,35,0.00,,,0.00,WUHU216WMR100,2013-07-28 16:18:00,
2013-07-28 12:23:00,70.7,41.5,28.97,SSE,157,1.6,4.3,35,0.00,,,0.00,WUHU216WMR100,2013-07-28 16:23:00,
2013-07-28 12:28:00,70.9,43.2,28.97,SSE,157,1.6,4.3,37,0.00,,,0.00,WUHU216WMR100,2013-07-28 16:28:00,
2013-07-28 12:33:00,70.3,42.6,28.97,SSE,157,1.6,4.3,37,0.00,,,0.00,WUHU216WMR100,2013-07-28 16:33:00,
2013-07-28 12:38:00,70.9,43.2,28.97,SSE,157,1.6,4.3,37,0.00,,,0.00,WUHU216WMR100,2013-07-28 16:38:00,
2013-07-28 12:43:00,71.1,43.3,28.97,SSE,157,1.6,4.3,37,0.00,,,0.00,WUHU216WMR100,2013-07-28 16:43:00,
2013-07-28 12:48:00,73.0,44.3,28.97,SSE,157,1.6,4.3,36,0.00,,,0.00,WUHU216WMR100,2013-07-28 16:48:00,
2013-07-28 12:53:00,74.8,44.4,28.97,SSE,157,1.6,4.3,34,0.00,,,0.00,WUHU216WMR100,2013-07-28 16:53:00,
2013-07-28 12:58:00,74.8,43.6,28.97,SSE,157,1.6,4.3,33,0.00,,,0.00,WUHU216WMR100,2013-07-28 16:58:00,
2013-07-28 13:04:00,74.3,43.9,28.97,SSE,157,1.6,4.3,34,0.00,,,0.00,WUHU216WMR100,2013-07-28 17:04:00,
2013-07-28 13:08:00,72.9,42.7,28.97,SSE,157,1.6,4.3,34,0.00,,,0.00,WUHU216WMR100,2013-07-28 17:08:00,
2013-07-28 13:14:00,72.7,43.3,28.97,SSE,157,1.6,4.3,35,0.00,,,0.00,WUHU216WMR100,2013-07-28 17:14:00,
2013-07-28 13:19:00,72.9,43.5,28.97,SSE,157,1.6,4.3,35,0.00,,,0.00,WUHU216WMR100,2013-07-28 17:19:00,
2013-07-28 13:26:00,74.7,44.3,28.97,SSE,157,1.6,4.3,34,0.00,,,0.00,WUHU216WMR100,2013-07-28 17:26:00,
2013-07-28 13:30:00,74.7,43.5,28.97,SSE,157,1.6,4.3,33,0.00,,,0.00,WUHU216WMR100,2013-07-28 17:30:00,
2013-07-28 13:35:00,75.0,43.8,28.97,SSE,157,1.6,4.3,33,0.00,,,0.00,WUHU216WMR100,2013-07-28 17:35:00,
2013-07-28 13:40:00,76.5,44.3,28.97,SSE,157,1.6,4.3,32,0.00,,,0.00,WUHU216WMR100,2013-07-28 17:40:00,
2013-07-28 13:45:00,75.2,43.1,28.97,SSE,157,1.6,4.3,32,0.00,,,0.00,WUHU216WMR100,2013-07-28 17:45:00,
2013-07-28 13:50:00,75.6,43.5,28.97,SSE,157,1.6,4.3,32,0.00,,,0.00,WUHU216WMR100,2013-07-28 17:50:00,
2013-07-28 13:55:00,74.5,42.5,28.97,SSE,157,1.6,4.3,32,0.00,,,0.00,WUHU216WMR100,2013-07-28 17:55:00,
2013-07-28 14:00:00,73.6,42.5,28.97,SSE,157,1.6,4.3,33,0.00,,,0.00,WUHU216WMR100,2013-07-28 18:00:00,
2013-07-28 14:05:00,72.1,42.0,28.97,SSE,157,1.6,4.3,34,0.00,,,0.00,WUHU216WMR100,2013-07-28 18:05:00,
2013-07-28 14:11:00,71.2,42.0,28.97,SSW,202,5.6,5.6,35,0.00,,,0.00,WUHU216WMR100,2013-07-28 18:11:00,
2013-07-28 14:16:00,71.2,43.4,28.97,NW,313,2.3,5.6,37,0.00,,,0.00,WUHU216WMR100,2013-07-28 18:16:00,
2013-07-28 14:21:00,70.7,43.7,28.97,WNW,292,2.7,6.3,38,0.00,,,0.00,WUHU216WMR100,2013-07-28 18:21:00,
2013-07-28 14:25:00,70.0,43.8,28.97,NW,321,3.6,6.9,39,0.00,,,0.00,WUHU216WMR100,2013-07-28 18:25:00,
2013-07-28 14:31:00,69.6,44.7,28.97,WSW,247,2.0,6.9,41,0.00,,,0.00,WUHU216WMR100,2013-07-28 18:31:00,
2013-07-28 14:36:00,69.4,45.9,28.97,NNW,333,1.9,6.0,43,0.00,,,0.00,WUHU216WMR100,2013-07-28 18:36:00,
2013-07-28 14:41:00,72.5,48.0,28.97,NW,315,4.3,6.0,42,0.00,,,0.00,WUHU216WMR100,2013-07-28 18:41:00,
2013-07-28 14:46:00,74.7,47.3,28.97,NW,315,4.3,5.6,38,0.00,,,0.00,WUHU216WMR100,2013-07-28 18:46:00,
2013-07-28 14:51:00,75.7,45.2,28.97,WNW,298,3.5,5.6,34,0.00,,,0.00,WUHU216WMR100,2013-07-28 18:51:00,
2013-07-28 14:55:00,75.6,45.1,28.97,NNW,337,4.0,5.8,34,0.00,,,0.00,WUHU216WMR100,2013-07-28 18:55:00,
2013-07-28 15:00:00,74.7,44.3,28.97,NNW,337,4.0,5.8,34,0.00,,,0.00,WUHU216WMR100,2013-07-28 19:00:00,
2013-07-28 15:05:00,75.0,44.6,28.97,NNW,337,4.0,4.0,34,0.00,,,0.00,WUHU216WMR100,2013-07-28 19:05:00,
2013-07-28 15:10:00,76.1,45.5,28.97,NNW,337,4.0,4.0,34,0.00,,,0.00,WUHU216WMR100,2013-07-28 19:10:00,
2013-07-28 15:15:00,74.1,43.0,28.97,North,1,3.7,4.0,33,0.00,,,0.00,WUHU216WMR100,2013-07-28 19:15:00,
2013-07-28 15:21:00,74.5,44.9,28.97,North,358,2.8,4.0,35,0.00,,,0.00,WUHU216WMR100,2013-07-28 19:21:00,
2013-07-28 15:25:00,73.9,44.4,28.97,SSW,210,2.6,5.8,35,0.00,,,0.00,WUHU216WMR100,2013-07-28 19:25:00,
2013-07-28 15:31:00,75.2,45.5,28.97,WSW,247,2.7,5.8,35,0.00,,,0.00,WUHU216WMR100,2013-07-28 19:31:00,
2013-07-28 15:36:00,74.1,43.8,28.97,WNW,292,6.7,8.1,34,0.00,,,0.00,WUHU216WMR100,2013-07-28 19:36:00,
2013-07-28 15:41:00,73.6,43.3,28.97,NNW,338,2.7,8.1,34,0.00,,,0.00,WUHU216WMR100,2013-07-28 19:41:00,
2013-07-28 15:46:00,72.5,43.1,28.97,WSW,247,3.1,6.9,35,0.00,,,0.00,WUHU216WMR100,2013-07-28 19:46:00,
2013-07-28 15:51:00,71.8,43.2,28.97,SW,234,3.4,5.4,36,0.00,,,0.00,WUHU216WMR100,2013-07-28 19:51:00,
2013-07-28 15:56:00,73.4,44.7,28.97,SSW,202,3.4,6.3,36,0.00,,,0.00,WUHU216WMR100,2013-07-28 19:56:00,
2013-07-28 16:01:00,74.7,45.8,28.97,South,174,2.7,6.3,36,0.00,,,0.00,WUHU216WMR100,2013-07-28 20:01:00,
2013-07-28 16:07:00,72.5,43.1,28.97,WNW,292,2.9,6.3,35,0.00,,,0.00,WUHU216WMR100,2013-07-28 20:07:00,
2013-07-28 16:12:00,71.8,44.0,28.97,WNW,294,3.5,6.5,37,0.00,,,0.00,WUHU216WMR100,2013-07-28 20:12:00,
2013-07-28 16:17:00,71.1,44.8,28.97,WNW,292,3.8,6.5,39,0.00,,,0.00,WUHU216WMR100,2013-07-28 20:17:00,
2013-07-28 16:22:00,70.7,45.1,28.97,WNW,292,2.0,6.5,40,0.00,,,0.00,WUHU216WMR100,2013-07-28 20:22:00,
2013-07-28 16:27:00,70.5,44.9,28.97,West,270,2.2,4.7,40,0.00,,,0.00,WUHU216WMR100,2013-07-28 20:27:00,
2013-07-28 16:32:00,71.2,44.8,28.97,WSW,247,2.0,4.7,39,0.00,,,0.00,WUHU216WMR100,2013-07-28 20:32:00,
2013-07-28 16:37:00,72.5,43.9,28.97,WNW,295,2.7,4.0,36,0.00,,,0.00,WUHU216WMR100,2013-07-28 20:37:00,
2013-07-28 16:42:00,74.7,45.1,28.97,NNW,337,2.5,4.0,35,0.00,,,0.00,WUHU216WMR100,2013-07-28 20:42:00,
2013-07-28 16:47:00,73.4,41.6,28.97,NNW,337,2.5,3.4,32,0.00,,,0.00,WUHU216WMR100,2013-07-28 20:47:00,
2013-07-28 16:52:00,72.9,41.1,28.97,NNW,337,2.5,2.5,32,0.00,,,0.00,WUHU216WMR100,2013-07-28 20:52:00,
2013-07-28 16:57:00,74.7,42.7,28.97,SSW,202,3.6,5.6,32,0.00,,,0.00,WUHU216WMR100,2013-07-28 20:57:00,
2013-07-28 17:02:00,76.8,42.0,28.97,SSW,202,3.6,5.6,29,0.00,,,0.00,WUHU216WMR100,2013-07-28 21:02:00,
2013-07-28 17:07:00,75.9,37.4,28.97,West,260,3.5,9.8,25,0.00,,,0.00,WUHU216WMR100,2013-07-28 21:07:00,
2013-07-28 17:12:00,76.5,36.9,28.97,SSW,202,3.4,9.8,24,0.00,,,0.00,WUHU216WMR100,2013-07-28 21:12:00,
2013-07-28 17:17:00,77.2,39.5,28.97,NNW,337,6.3,9.8,26,0.00,,,0.00,WUHU216WMR100,2013-07-28 21:17:00,
2013-07-28 17:22:00,76.6,35.9,28.97,WSW,247,4.0,6.9,23,0.00,,,0.00,WUHU216WMR100,2013-07-28 21:22:00,
2013-07-28 17:27:00,76.5,36.9,28.97,WNW,292,5.8,10.3,24,0.00,,,0.00,WUHU216WMR100,2013-07-28 21:27:00,
2013-07-28 17:32:00,76.5,37.9,28.97,WSW,247,3.8,10.3,25,0.00,,,0.00,WUHU216WMR100,2013-07-28 21:32:00,
2013-07-28 17:37:00,76.5,36.9,28.97,WSW,247,2.7,5.8,24,0.00,,,0.00,WUHU216WMR100,2013-07-28 21:37:00,
2013-07-28 17:42:00,75.6,35.1,28.97,WSW,247,2.7,3.4,23,0.00,,,0.00,WUHU216WMR100,2013-07-28 21:42:00,
2013-07-28 17:47:00,76.3,36.8,28.97,WSW,244,3.7,3.8,24,0.00,,,0.00,WUHU216WMR100,2013-07-28 21:47:00,
2013-07-28 17:52:00,76.3,37.8,28.97,SSW,202,3.1,3.8,25,0.00,,,0.00,WUHU216WMR100,2013-07-28 21:52:00,
2013-07-28 17:57:00,76.3,36.8,28.97,SSW,202,3.1,3.4,24,0.00,,,0.00,WUHU216WMR100,2013-07-28 21:57:00,
2013-07-28 18:02:00,75.6,36.2,28.97,NW,315,3.4,3.4,24,0.00,,,0.00,WUHU216WMR100,2013-07-28 22:02:00,
2013-07-28 18:07:00,76.1,36.6,28.97,WNW,292,2.9,4.3,24,0.00,,,0.00,WUHU216WMR100,2013-07-28 22:07:00,
2013-07-28 18:12:00,76.8,39.2,28.97,NNW,337,2.0,4.3,26,0.00,,,0.00,WUHU216WMR100,2013-07-28 22:12:00,
2013-07-28 18:17:00,76.5,37.9,28.97,West,270,2.5,6.3,25,0.00,,,0.00,WUHU216WMR100,2013-07-28 22:17:00,
2013-07-28 18:22:00,75.6,36.2,28.97,SSW,202,4.3,6.3,24,0.00,,,0.00,WUHU216WMR100,2013-07-28 22:22:00,
2013-07-28 18:27:00,74.7,36.4,28.97,West,280,2.4,6.3,25,0.00,,,0.00,WUHU216WMR100,2013-07-28 22:27:00,
2013-07-28 18:32:00,74.1,37.8,28.97,NNW,337,2.0,7.4,27,0.00,,,0.00,WUHU216WMR100,2013-07-28 22:32:00,
2013-07-28 18:38:00,74.3,38.9,28.97,South,186,2.4,7.4,28,0.00,,,0.00,WUHU216WMR100,2013-07-28 22:38:00,
2013-07-28 18:43:00,74.1,37.8,28.97,South,180,2.2,5.6,27,0.00,,,0.00,WUHU216WMR100,2013-07-28 22:43:00,
2013-07-28 18:48:00,74.1,38.8,28.97,South,180,2.2,2.2,28,0.00,,,0.00,WUHU216WMR100,2013-07-28 22:48:00,
2013-07-28 18:53:00,74.5,40.9,28.97,WNW,290,2.0,2.2,30,0.00,,,0.00,WUHU216WMR100,2013-07-28 22:53:00,
2013-07-28 18:58:00,74.3,39.8,28.97,WSW,247,3.1,3.1,29,0.00,,,0.00,WUHU216WMR100,2013-07-28 22:58:00,
2013-07-28 19:03:00,74.1,39.6,29.00,WSW,247,3.1,3.6,29,0.00,,,0.00,WUHU216WMR100,2013-07-28 23:03:00,
2013-07-28 19:09:00,74.1,40.5,29.00,WSW,247,3.1,3.6,30,0.00,,,0.00,WUHU216WMR100,2013-07-28 23:09:00,
2013-07-28 19:14:00,73.8,39.4,29.00,West,270,4.7,4.7,29,0.00,,,0.00,WUHU216WMR100,2013-07-28 23:14:00,
2013-07-28 19:19:00,73.4,40.7,29.00,West,270,4.7,4.7,31,0.00,,,0.00,WUHU216WMR100,2013-07-28 23:19:00,
2013-07-28 19:24:00,73.0,40.4,29.00,West,270,4.7,4.7,31,0.00,,,0.00,WUHU216WMR100,2013-07-28 23:24:00,
2013-07-28 19:29:00,72.9,40.3,29.00,West,270,4.7,4.7,31,0.00,,,0.00,WUHU216WMR100,2013-07-28 23:29:00,
2013-07-28 19:34:00,72.3,39.8,29.00,West,270,4.7,4.7,31,0.00,,,0.00,WUHU216WMR100,2013-07-28 23:34:00,
2013-07-28 19:39:00,72.0,39.5,29.00,WNW,292,2.9,4.7,31,0.00,,,0.00,WUHU216WMR100,2013-07-28 23:39:00,
2013-07-28 19:44:00,72.0,40.3,29.00,NW,305,2.0,4.7,32,0.00,,,0.00,WUHU216WMR100,2013-07-28 23:44:00,
2013-07-28 19:51:00,71.4,40.6,29.00,WSW,247,3.6,3.8,33,0.00,,,0.00,WUHU216WMR100,2013-07-28 23:51:00,
2013-07-28 19:56:00,70.5,39.8,29.00,WSW,247,3.6,3.8,33,0.00,,,0.00,WUHU216WMR100,2013-07-28 23:56:00,
2013-07-28 20:01:00,70.2,40.3,29.00,WSW,247,3.6,3.6,34,0.00,,,0.00,WUHU216WMR100,2013-07-29 00:01:00,
2013-07-28 20:06:00,69.4,40.4,29.00,WSW,247,2.7,3.6,35,0.00,,,0.00,WUHU216WMR100,2013-07-29 00:06:00,
2013-07-28 20:12:00,68.5,40.3,29.00,SSE,157,0.0,3.6,36,0.00,,,0.00,WUHU216WMR100,2013-07-29 00:12:00,
2013-07-28 20:17:00,67.8,40.4,29.00,SSE,157,0.0,0.0,37,0.00,,,0.00,WUHU216WMR100,2013-07-29 00:17:00,
2013-07-28 20:22:00,67.3,41.3,29.00,SSE,157,0.0,0.0,39,0.00,,,0.00,WUHU216WMR100,2013-07-29 00:22:00,
2013-07-28 20:27:00,66.7,40.8,29.00,SSE,157,0.0,0.0,39,0.00,,,0.00,WUHU216WMR100,2013-07-29 00:27:00,
2013-07-28 20:32:00,66.4,41.2,29.00,NW,315,0.0,0.0,40,0.00,,,0.00,WUHU216WMR100,2013-07-29 00:32:00,
2013-07-28 20:37:00,66.0,42.1,29.00,NW,315,0.0,0.0,42,0.00,,,0.00,WUHU216WMR100,2013-07-29 00:37:00,
2013-07-28 20:42:00,65.8,42.6,29.00,NW,315,0.0,0.0,43,0.00,,,0.00,WUHU216WMR100,2013-07-29 00:42:00,
2013-07-28 20:47:00,65.8,43.2,29.00,NW,315,0.0,0.0,44,0.00,,,0.00,WUHU216WMR100,2013-07-29 00:47:00,
2013-07-28 20:52:00,65.5,42.9,29.00,NW,315,0.0,0.0,44,0.00,,,0.00,WUHU216WMR100,2013-07-29 00:52:00,
2013-07-28 20:57:00,65.3,43.4,29.00,NW,315,0.0,0.0,45,0.00,,,0.00,WUHU216WMR100,2013-07-29 00:57:00,
2013-07-28 21:02:00,64.8,42.9,29.03,NW,315,0.0,0.0,45,0.00,,,0.00,WUHU216WMR100,2013-07-29 01:02:00,
2013-07-28 21:07:00,64.4,42.5,29.03,NW,315,0.0,0.0,45,0.00,,,0.00,WUHU216WMR100,2013-07-29 01:07:00,
2013-07-28 21:12:00,64.0,42.8,29.03,NW,315,0.0,0.0,46,0.00,,,0.00,WUHU216WMR100,2013-07-29 01:12:00,
2013-07-28 21:17:00,63.7,43.1,29.03,NW,315,0.0,0.0,47,0.00,,,0.00,WUHU216WMR100,2013-07-29 01:17:00,
2013-07-28 21:22:00,63.7,43.1,29.00,NW,315,0.0,0.0,47,0.00,,,0.00,WUHU216WMR100,2013-07-29 01:22:00,
2013-07-28 21:27:00,63.5,43.4,29.00,NW,315,0.0,0.0,48,0.00,,,0.00,WUHU216WMR100,2013-07-29 01:27:00,
2013-07-28 21:32:00,63.7,44.7,29.03,SSE,157,0.0,0.0,50,0.00,,,0.00,WUHU216WMR100,2013-07-29 01:32:00,
2013-07-28 21:38:00,63.9,44.9,29.03,SSE,157,0.0,0.0,50,0.00,,,0.00,WUHU216WMR100,2013-07-29 01:38:00,
2013-07-28 21:43:00,63.9,45.5,29.03,SSE,157,0.0,0.0,51,0.00,,,0.00,WUHU216WMR100,2013-07-29 01:43:00,
2013-07-28 21:48:00,63.7,45.3,29.03,SSW,202,0.0,0.0,51,0.00,,,0.00,WUHU216WMR100,2013-07-29 01:48:00,
2013-07-28 21:53:00,63.1,45.2,29.03,WSW,247,0.0,0.0,52,0.00,,,0.00,WUHU216WMR100,2013-07-29 01:53:00,
2013-07-28 21:58:00,63.0,45.1,29.03,WSW,247,0.0,0.0,52,0.00,,,0.00,WUHU216WMR100,2013-07-29 01:58:00,
2013-07-28 22:03:00,62.6,45.3,29.03,WSW,247,0.0,0.0,53,0.00,,,0.00,WUHU216WMR100,2013-07-29 02:03:00,
2013-07-28 22:08:00,62.2,45.9,29.03,WSW,247,0.0,0.0,55,0.00,,,0.00,WUHU216WMR100,2013-07-29 02:08:00,
2013-07-28 22:13:00,61.9,45.1,29.03,WSW,247,0.0,0.0,54,0.00,,,0.00,WUHU216WMR100,2013-07-29 02:13:00,
2013-07-28 22:18:00,61.7,45.9,29.03,WSW,247,0.0,0.0,56,0.00,,,0.00,WUHU216WMR100,2013-07-29 02:18:00,
2013-07-28 22:23:00,61.5,45.8,29.03,WNW,292,0.0,0.0,56,0.00,,,0.00,WUHU216WMR100,2013-07-29 02:23:00,
2013-07-28 22:28:00,61.5,46.7,29.03,WNW,292,0.0,0.0,58,0.00,,,0.00,WUHU216WMR100,2013-07-29 02:28:00,
2013-07-28 22:34:00,61.5,46.7,29.03,WNW,292,0.0,0.0,58,0.00,,,0.00,WUHU216WMR100,2013-07-29 02:34:00,
2013-07-28 22:39:00,61.5,47.6,29.03,WNW,292,0.0,0.0,60,0.00,,,0.00,WUHU216WMR100,2013-07-29 02:39:00,
2013-07-28 22:44:00,61.3,47.4,29.03,WNW,292,0.0,0.0,60,0.00,,,0.00,WUHU216WMR100,2013-07-29 02:44:00,
2013-07-28 22:50:00,61.2,47.3,29.03,WNW,292,0.0,0.0,60,0.00,,,0.00,WUHU216WMR100,2013-07-29 02:50:00,
2013-07-28 22:55:00,61.0,47.6,29.03,WNW,292,0.0,0.0,61,0.00,,,0.00,WUHU216WMR100,2013-07-29 02:55:00,
2013-07-28 23:00:00,60.8,47.4,29.03,WNW,292,0.0,0.0,61,0.00,,,0.00,WUHU216WMR100,2013-07-29 03:00:00,
2013-07-28 23:05:00,60.6,47.7,29.03,WNW,292,0.0,0.0,62,0.00,,,0.00,WUHU216WMR100,2013-07-29 03:05:00,
2013-07-28 23:10:00,60.6,48.1,29.03,WNW,292,0.0,0.0,63,0.00,,,0.00,WUHU216WMR100,2013-07-29 03:10:00,
2013-07-28 23:15:00,60.6,48.1,29.03,WNW,292,0.0,0.0,63,0.00,,,0.00,WUHU216WMR100,2013-07-29 03:15:00,
2013-07-28 23:21:00,60.8,48.3,29.03,WNW,292,0.0,0.0,63,0.00,,,0.00,WUHU216WMR100,2013-07-29 03:21:00,
2013-07-28 23:25:00,60.6,48.1,29.03,WNW,292,0.0,0.0,63,0.00,,,0.00,WUHU216WMR100,2013-07-29 03:25:00,
2013-07-28 23:31:00,60.8,48.7,29.03,WNW,292,0.0,0.0,64,0.00,,,0.00,WUHU216WMR100,2013-07-29 03:31:00,
2013-07-28 23:36:00,60.4,48.3,29.03,WNW,292,0.0,0.0,64,0.00,,,0.00,WUHU216WMR100,2013-07-29 03:36:00,
2013-07-28 23:41:00,60.6,48.5,29.03,WNW,292,0.0,0.0,64,0.00,,,0.00,WUHU216WMR100,2013-07-29 03:41:00,
2013-07-28 23:46:00,60.4,48.3,29.03,WNW,292,0.0,0.0,64,0.00,,,0.00,WUHU216WMR100,2013-07-29 03:46:00,
2013-07-28 23:51:00,60.4,48.7,29.03,WNW,292,0.0,0.0,65,0.00,,,0.00,WUHU216WMR100,2013-07-29 03:51:00,
2013-07-28 23:56:00,60.1,48.0,29.03,WNW,292,0.0,0.0,64,0.00,,,0.00,WUHU216WMR100,2013-07-29 03:56:00,